San Ramon, CA

12:38 AM PDT on August 28, 2016 (GMT -0700)
Hills at Bent Creek | | Change Station

Elev 489 ft 37.73 °N, 121.92 °W | Updated 7 seconds ago

Clear
Clear
54.8 °F
Feels Like 54.8 °F
N
0.0
Wind Variable Wind from SW

Today
High -- | Low -- °F
--% Chance of Precip.
Yesterday
High -- | Low -- °F
Precip. -- in
Pressure 30.02 in
Visibility 10.0 miles
Clouds Clear
Dew Point 52 °F
Humidity 89%
Rainfall 0.00 in
Snow Depth Not available.
6:34 AM 7:41 PM
Waning Crescent, 17% visible
METAR KLVK 280653Z AUTO 28007KT 10SM CLR 14/11 A3003 RMK AO2 SLP166 T01440111
Pressure 30.02 in
Visibility 10.0 miles
Clouds Clear
Dew Point 52 °F
Humidity 89%
Rainfall 0.00 in
Snow Depth Not available.
6:34 AM 7:41 PM
Waning Crescent, 17% visible
METAR KLVK 280653Z AUTO 28007KT 10SM CLR 14/11 A3003 RMK AO2 SLP166 T01440111

10-Day Weather Forecast

Almanac

Astronomy

Aug. 28, 2016 Rise Set
Actual Time
Civil Twilight
Nautical Twilight
Astronomical Twilight
Moon
Length of Visible Light
Length of Day
Tomorrow will be .
, % of the Moon is Illuminated

Today's Extremes

State Highs State Lows

Community

WunderPhotos

Upload Photos

1,935,533 photos uploaded!

WunderBlog® & News

Nearby

Air Quality

  Air Quality AQ Index Pollutant
Not available.

Snow Depth

Station Depth Elevation

Earthquake Activity

City Distance Mag. Time & Date
Minimum magnitude displayed is 2.5.

Coastal Water Temperatures

Place Temperature

Stations

Nearby Weather Stations

Station Location Temp. Windchill Dew Point Humidity Wind Precip. Elev Updated Type
                   

Watches & Warnings

There are currently no watches in effect.